Station: Combienbar  

  Atmospheric Gas Attenuation - ITU Rec 676-11   ----------------- dB/100km -----------------
Date Time Temp RH % AH g/m3 Dew Point Wind Direction Speed kph Gust kph Barometer mB Rainfall Since 9am 24GHz 47GHz 76GHz 122GHz 134GHz 241GHz
08/05 12:30 9.5 86 7.83 7.3 17 33 1016.4 0 18.1 26.0 38.9 102.1 93.7 321.3
08/05 12:20 9.3 85 7.64 7 20 32 1016.4 0 17.7 25.7 38.2 100.2 91.3 313.0
08/05 12:10 9.2 88 7.86 7.4 9 13 1016.7 0 18.2 26.2 39.2 102.8 94.5 324.0
08/05 12:00 9.5 92 8.38 8.3 11 24 1016.6 0 19.3 26.9 41.2 108.2 101.3 347.9
08/05 11:50 9.6 90 8.25 8 11 15 1016.5 0 19.0 26.7 40.6 106.6 99.3 341.1
08/05 11:40 9.8 88 8.17 7.9 9 13 1016.3 0 18.9 26.5 40.2 105.4 97.9 336.3
08/05 11:30 9.3 85 7.64 6.9 13 33 1016.3 0 17.7 25.7 38.2 100.2 91.3 313.0
08/05 11:20 9 85 7.5 6.6 17 22 1016.5 0 17.5 25.6 37.8 99.1 89.8 307.6
08/05 11:10 9.3 82 7.37 6.4 17 22 1016.5 0 17.2 25.3 37.1 97.3 87.7 300.3
08/05 11:00 9.7 81 7.47 6.6 19 39 1016.3 0 17.4 25.3 37.4 97.8 88.5 303.4
08/05 10:50 9.1 84 7.46 6.5 22 28 1016.5 0 17.4 25.5 37.6 98.5 89.1 305.3
08/05 10:40 8.9 85 7.45 6.6 15 26 1016.3 0 17.3 25.5 37.7 98.6 89.2 305.5
08/05 10:30 8.9 88 7.71 7 13 32 1016.4 0 17.9 26.0 38.7 101.5 92.7 318.0
08/05 10:20 9.1 90 7.99 7.5 13 22 1016.2 0 18.5 26.4 39.8 104.3 96.3 330.6
08/05 10:10 9.1 88 7.81 7.3 19 28 1016.1 0 18.1 26.1 39.0 102.3 93.8 321.9
08/05 10:00 9.3 86 7.73 7.1 13 30 1015.8 0 17.9 25.9 38.6 101.1 92.5 317.2
08/05 09:50 9.4 82 7.42 6.5 28 61 1015.5 0 17.3 25.3 37.3 97.6 88.2 302.0
08/05 09:40 9.6 81 7.42 6.6 17 22 1015.4 0 17.3 25.3 37.2 97.3 87.9 301.2
08/05 09:30 9.7 82 7.56 6.8 26 48 1015.2 0 17.5 25.5 37.7 98.7 89.7 307.3
08/05 09:20 9.4 85 7.69 7.1 20 33 1015.2 0 17.8 25.8 38.4 100.5 91.8 314.7
08/05 09:10 9.3 85 7.64 7 11 24 1015.1 0 17.7 25.7 38.2 100.1 91.2 312.7
08/05 09:00 9.1 87 7.72 7.1 17 37 1015 0 17.9 25.9 38.6 101.2 92.5 317.3
08/05 08:50 8.9 88 7.71 7 17 30 1015.1 0.8 17.9 25.9 38.7 101.4 92.6 317.6
08/05 08:40 8.5 91 7.77 7.1 20 33 1014.8 0.8 18.1 26.1 39.1 102.5 93.9 322.1
08/05 08:30 8.5 91 7.77 7.1 19 43 1015.1 0.8 18.1 26.1 39.1 102.6 93.9 322.2
08/05 08:20 8.4 91 7.72 7.1 24 46 1014.7 0.8 18.0 26.1 38.9 102.1 93.3 320.1
08/05 08:10 8.3 93 7.84 7.2 19 28 1014.7 0.8 18.2 26.3 39.5 103.6 95.1 326.3
08/05 08:00 8.2 93 7.79 7.1 17 37 1014.4 0.8 18.1 26.2 39.3 103.1 94.5 324.2
08/05 07:50 8.2 91 7.62 6.9 9 11 1014.5 0.8 17.7 26.0 38.6 101.2 92.2 316.0
08/05 07:40 8.2 91 7.62 6.9 13 20 1014.4 0.8 17.7 26.0 38.6 101.2 92.2 316.0
08/05 07:30 8.1 92 7.66 6.9 15 35 1014 0.8 17.8 26.0 38.8 101.7 92.8 318.2
08/05 07:20 8.2 91 7.62 6.8 17 20 1014.1 0.8 17.7 25.9 38.6 101.2 92.2 315.9
08/05 07:10 8.2 91 7.62 6.8 15 20 1013.7 0.8 17.7 25.9 38.6 101.1 92.1 315.8
08/05 07:00 8.3 89 7.5 6.6 22 39 1013.4 0.8 17.5 25.7 38.0 99.6 90.3 309.6
08/05 06:50 8.4 87 7.38 6.3 17 20 1013.4 0.8 17.2 25.5 37.5 98.2 88.6 303.4
08/05 06:40 8.2 89 7.46 6.5 20 30 1013.3 0.8 17.4 25.6 37.9 99.3 89.9 308.0
08/05 06:30 8.1 89 7.41 6.4 19 37 1013.3 0.8 17.3 25.6 37.7 98.9 89.3 306.0
08/05 06:20 8.3 88 7.42 6.4 20 37 1013.1 0.8 17.3 25.5 37.7 98.7 89.2 305.7
08/05 06:10 8.1 89 7.41 6.4 22 26 1013.1 0.6 17.3 25.6 37.7 98.9 89.3 306.0
08/05 06:00 8.1 88 7.33 6.2 19 39 1013.3 0.6 17.1 25.5 37.4 98.0 88.3 302.2
08/05 05:50 8.6 82 7.05 5.8 22 32 1013.1 0.6 16.5 24.8 36.0 94.3 83.9 287.0
08/05 05:40 8.7 82 7.09 5.8 15 26 1013.4 0.6 16.6 24.9 36.1 94.6 84.4 288.6
08/05 05:30 8.6 83 7.13 5.9 20 37 1012.9 0.6 16.7 25.0 36.3 95.2 85.0 290.7
08/05 05:20 8.8 81 7.05 5.7 20 32 1012.7 0.6 16.5 24.8 35.9 94.0 83.7 286.2
08/05 05:10 8.9 79 6.92 5.4 15 19 1012.9 0.6 16.2 24.5 35.3 92.5 81.8 279.8
08/05 05:00 9.1 78 6.92 5.5 20 39 1012.5 0.6 16.2 24.5 35.2 92.3 81.6 279.0
08/05 04:50 9.1 76 6.75 5.2 17 24 1012.6 0.6 15.8 24.2 34.6 90.4 79.4 271.2
08/05 04:40 8.9 77 6.75 5.2 28 44 1012.6 0.6 15.8 24.3 34.7 90.7 79.6 271.9
08/05 04:30 9.1 77 6.83 5.3 20 37 1012.5 0.6 16.0 24.3 34.9 91.3 80.4 274.9
08/05 04:20 8.8 79 6.88 5.3 19 22 1012.5 0.6 16.1 24.5 35.2 92.2 81.4 278.2
08/05 04:10 8.8 80 6.97 5.5 26 35 1012.3 0.6 16.3 24.6 35.6 93.1 82.6 282.4
08/05 04:00 8.8 79 6.88 5.4 20 39 1012.5 0.6 16.1 24.5 35.2 92.2 81.4 278.2
08/05 03:50 8.7 79 6.83 5.2 17 26 1012.9 0.6 16.0 24.5 35.1 91.8 80.9 276.4
08/05 03:40 8.6 79 6.79 5.1 17 26 1012.7 0.6 15.9 24.4 35.0 91.5 80.4 274.8
08/05 03:30 8.1 82 6.83 5.2 19 33 1012.8 0.6 16.0 24.6 35.3 92.5 81.5 278.5
08/05 03:20 8.1 82 6.83 5.2 26 37 1012.6 0.6 16.0 24.6 35.3 92.5 81.5 278.4
08/05 03:10 8.3 78 6.58 4.7 24 33 1012.7 0.6 15.5 24.2 34.2 89.6 77.9 266.1
08/05 03:00 8.6 76 6.53 4.6 22 46 1012.7 0.6 15.4 24.0 33.9 88.7 77.0 262.8
08/05 02:50 8.4 76 6.45 4.4 22 32 1012.8 0.6 15.2 23.9 33.7 88.1 76.2 259.8
08/05 02:40 8.3 76 6.41 4.3 20 32 1013 0.6 15.1 23.9 33.6 87.8 75.7 258.4
08/05 02:30 7.9 77 6.33 4.1 20 33 1013 0.6 15.0 23.9 33.4 87.4 75.1 256.0
08/05 02:20 7.8 77 6.29 4 20 32 1013 0.6 14.9 23.8 33.3 87.1 74.7 254.5
08/05 02:10 7.5 79 6.33 4.2 20 30 1013.3 0.6 15.0 24.0 33.6 87.9 75.5 257.4
08/05 02:00 7.5 80 6.41 4.3 20 41 1013.6 0.6 15.2 24.1 33.9 88.7 76.6 261.1
08/05 01:50 7.3 79 6.24 4 20 26 1013.8 0.6 14.8 23.9 33.4 87.2 74.5 254.0
08/05 01:40 7.2 79 6.2 3.9 13 22 1013.9 0.6 14.7 23.9 33.2 86.9 74.1 252.5
08/05 01:30 7.2 79 6.2 3.8 19 35 1013.9 0.6 14.7 23.9 33.2 86.9 74.1 252.5
08/05 01:20 7.2 78 6.13 3.6 20 28 1013.9 0.6 14.6 23.8 33.0 86.1 73.2 249.2
08/05 01:10 6.8 79 6.05 3.4 15 19 1014 0.6 14.4 23.7 32.8 85.7 72.5 246.8
08/05 01:00 6.8 78 5.97 3.2 20 37 1014.1 0.6 14.2 23.6 32.5 84.9 71.5 243.2
08/05 00:50 6.5 79 5.93 3.1 17 22 1014.2 0.6 14.2 23.6 32.5 84.8 71.2 242.3
08/05 00:40 6.5 78 5.85 2.9 24 33 1014.2 0.6 14.0 23.5 32.1 83.9 70.2 238.6
08/05 00:30 6.2 80 5.89 3 19 35 1014.5 0.6 14.1 23.7 32.4 84.7 71.0 241.4
08/05 00:20 5.9 81 5.84 2.9 19 39 1014.7 0.6 14.0 23.7 32.4 84.5 70.6 240.0
08/05 00:10 6 79 5.74 2.6 19 26 1014.5 0.6 13.8 23.5 31.9 83.3 69.2 235.1
08/05 00:00 6.1 78 5.7 2.6 19 37 1014.7 0.6 13.7 23.4 31.7 82.8 68.6 233.0
07/05 23:50 6 78 5.66 2.4 17 32 1015 0.6 13.6 23.4 31.6 82.5 68.2 231.5
07/05 23:40 6 78 5.66 2.4 20 26 1015.3 0.6 13.6 23.4 31.6 82.5 68.2 231.5
07/05 23:30 6 77 5.59 2.3 17 32 1015.3 0.6 13.5 23.3 31.4 81.8 67.3 228.3
07/05 23:20 5.8 78 5.59 2.2 19 33 1015.5 0.6 13.5 23.3 31.4 82.0 67.5 229.0
07/05 23:10 5.3 81 5.62 2.3 17 30 1015.4 0.6 13.6 23.5 31.8 82.9 68.3 231.8
07/05 23:00 5.4 80 5.59 2.2 11 33 1015.5 0.6 13.5 23.4 31.6 82.4 67.8 230.1
07/05 22:50 5.4 80 5.59 2.2 15 20 1015.7 0.6 13.5 23.4 31.6 82.5 67.8 230.2
07/05 22:40 5.2 81 5.58 2.3 15 28 1015.7 0.6 13.5 23.5 31.6 82.6 67.9 230.3
07/05 22:30 5.3 80 5.55 2.1 13 28 1016 0.6 13.4 23.4 31.5 82.2 67.4 228.7
07/05 22:20 5.4 77 5.38 1.8 17 20 1016.3 0.6 13.0 23.1 30.8 80.3 65.1 220.6
07/05 22:10 5.4 77 5.38 1.8 9 13 1016.4 0.6 13.0 23.1 30.8 80.3 65.1 220.6
07/05 22:00 5.3 78 5.41 1.8 17 32 1016.4 0.6 13.1 23.2 31.0 80.7 65.6 222.3
07/05 21:50 5.1 79 5.41 1.7 15 32 1016.5 0.6 13.1 23.3 31.0 80.9 65.8 222.9
07/05 21:40 5.2 75 5.17 1.1 17 32 1016.5 0.6 12.6 22.9 30.1 78.3 62.5 211.6
07/05 21:30 5.1 77 5.27 1.4 15 28 1016.4 0.6 12.8 23.0 30.5 79.4 63.9 216.4
07/05 21:20 5 77 5.24 1.3 15 20 1016.5 0.6 12.7 23.0 30.4 79.2 63.6 215.3
07/05 21:10 5 78 5.3 1.5 11 15 1016.5 0.6 12.9 23.1 30.6 79.9 64.4 218.1
07/05 21:00 5 77 5.24 1.3 20 37 1016.4 0.6 12.7 23.0 30.4 79.2 63.6 215.3
07/05 20:50 5 77 5.24 1.3 20 30 1016.3 0.6 12.7 23.0 30.4 79.2 63.6 215.3
07/05 20:40 4.8 77 5.17 1.1 17 24 1016.4 0.6 12.6 23.0 30.2 78.7 62.9 212.6
07/05 20:30 4.9 77 5.2 1.2 17 43 1016.4 0.6 12.7 23.0 30.3 78.9 63.2 213.8
07/05 20:20 4.9 77 5.2 1.2 17 22 1016.6 0.6 12.7 23.0 30.3 78.9 63.2 213.8
07/05 20:10 4.9 75 5.07 0.8 24 39 1016.5 0.6 12.4 22.8 29.8 77.5 61.5 207.8
07/05 20:00 4.6 79 5.23 1.3 19 37 1016.5 0.6 12.7 23.1 30.5 79.5 63.8 216.0

Last Refresh: 08-May-2026 12:07:35

Bureau of Meteorology